Time;durP1;ratioP1;P1;durP2;ratioP2;P2;SDS_P1;SDS_P2;PMS_P1;PMS_P2;Temp;Humidity;BMP_temperature;BMP_pressure;BME280_temperature;BME280_humidity;BME280_pressure;Samples;Min_cycle;Max_cycle;Signal;HPM_P1;HPM_P2
2021/08/19 00:01:23;;;;;;;12.57;6.68;;;;;;;;;;5008515;28;20029;-68
2021/08/19 00:03:49;;;;;;;9.00;6.68;;;;;;;;;;5012483;28;20032;-68
2021/08/19 00:06:15;;;;;;;9.48;5.70;;;;;;;;;;5008257;28;20029;-68
2021/08/19 00:08:41;;;;;;;8.27;5.53;;;;;;;;;;5007547;28;20056;-68
2021/08/19 00:11:08;;;;;;;7.65;5.68;;;;;;;;;;5009267;28;20057;-68
2021/08/19 00:13:34;;;;;;;8.23;5.20;;;;;;;;;;5018433;28;20029;-68
2021/08/19 00:16:00;;;;;;;8.82;5.47;;;;;;;;;;5006326;28;20079;-69
2021/08/19 00:18:26;;;;;;;7.85;5.70;;;;;;;;;;5012900;28;20351;-69
2021/08/19 00:20:52;;;;;;;7.90;4.43;;;;;;;;;;5016721;28;21287;-69
2021/08/19 00:23:18;;;;;;;7.38;5.32;;;;;;;;;;5018712;28;20028;-69
2021/08/19 00:25:44;;;;;;;7.72;5.28;;;;;;;;;;5022014;28;20018;-69
2021/08/19 00:28:10;;;;;;;7.65;5.75;;;;;;;;;;5006844;28;20042;-68
2021/08/19 00:30:37;;;;;;;9.50;5.85;;;;;;;;;;5009821;28;20057;-68
2021/08/19 00:33:03;;;;;;;11.77;4.97;;;;;;;;;;5006169;28;20512;-68
2021/08/19 00:35:29;;;;;;;13.30;6.50;;;;;;;;;;5019244;28;20494;-68
2021/08/19 00:37:55;;;;;;;10.57;6.55;;;;;;;;;;5018891;28;20030;-68
2021/08/19 00:40:21;;;;;;;7.68;5.70;;;;;;;;;;5004264;28;20121;-68
2021/08/19 00:42:47;;;;;;;12.77;7.05;;;;;;;;;;5013521;28;20387;-68
2021/08/19 00:45:13;;;;;;;9.98;6.88;;;;;;;;;;5018209;28;20026;-68
2021/08/19 00:47:40;;;;;;;10.65;6.95;;;;;;;;;;5017036;28;20388;-68
2021/08/19 00:50:06;;;;;;;8.63;5.90;;;;;;;;;;5018373;28;20033;-68
2021/08/19 00:52:33;;;;;;;9.48;6.05;;;;;;;;;;5023751;28;20032;-68
2021/08/19 00:54:59;;;;;;;9.98;7.22;;;;;;;;;;5020586;28;20669;-68
2021/08/19 00:57:25;;;;;;;10.40;6.88;;;;;;;;;;5004848;28;20029;-68
2021/08/19 00:59:52;;;;;;;11.25;6.40;;;;;;;;;;5007842;28;20049;-68
2021/08/19 01:02:19;;;;;;;8.95;5.90;;;;;;;;;;5009197;28;20111;-68
2021/08/19 01:04:45;;;;;;;7.80;5.50;;;;;;;;;;5013815;28;20026;-68
2021/08/19 01:07:11;;;;;;;10.90;6.88;;;;;;;;;;5007738;28;20026;-68
2021/08/19 01:09:37;;;;;;;11.73;6.38;;;;;;;;;;5011466;28;20705;-68
2021/08/19 01:12:04;;;;;;;10.90;6.20;;;;;;;;;;5005613;28;20034;-68
2021/08/19 01:14:31;;;;;;;9.07;6.50;;;;;;;;;;5004275;28;20426;-68
2021/08/19 01:16:57;;;;;;;10.07;6.88;;;;;;;;;;5008385;28;20188;-68
2021/08/19 01:19:23;;;;;;;10.57;6.90;;;;;;;;;;5010162;28;20459;-67
2021/08/19 01:21:50;;;;;;;8.68;6.30;;;;;;;;;;5014304;28;20034;-67
2021/08/19 01:24:16;;;;;;;10.50;6.82;;;;;;;;;;5012601;28;20058;-67
2021/08/19 01:26:42;;;;;;;12.82;6.75;;;;;;;;;;5028046;28;20033;-68
2021/08/19 01:29:09;;;;;;;10.23;6.90;;;;;;;;;;5026674;28;20026;-68
2021/08/19 01:31:35;;;;;;;12.35;7.57;;;;;;;;;;5015186;28;20022;-68
2021/08/19 01:34:01;;;;;;;16.55;7.57;;;;;;;;;;5021098;28;20044;-68
2021/08/19 01:36:27;;;;;;;12.18;7.25;;;;;;;;;;5009278;28;20480;-68
2021/08/19 01:38:53;;;;;;;14.35;7.68;;;;;;;;;;5010591;28;20083;-68
2021/08/19 01:41:20;;;;;;;14.48;7.85;;;;;;;;;;5007030;28;20551;-68
2021/08/19 01:43:52;;;;;;;14.20;7.65;;;;;;;;;;5012576;28;20033;-68
2021/08/19 01:46:19;;;;;;;19.38;9.18;;;;;;;;;;5023892;28;20031;-68
2021/08/19 01:48:45;;;;;;;14.57;8.27;;;;;;;;;;5012308;28;20109;-68
2021/08/19 01:51:11;;;;;;;14.48;8.68;;;;;;;;;;5012976;28;20045;-68
2021/08/19 01:53:38;;;;;;;15.90;8.57;;;;;;;;;;5010653;28;20070;-68
2021/08/19 01:56:05;;;;;;;15.43;8.57;;;;;;;;;;5016982;28;20101;-68
2021/08/19 01:58:31;;;;;;;16.50;8.52;;;;;;;;;;5015063;28;20033;-68
2021/08/19 02:00:57;;;;;;;21.15;8.98;;;;;;;;;;5019165;28;20034;-68
2021/08/19 02:03:22;;;;;;;18.15;9.48;;;;;;;;;;5014257;28;20034;-68
2021/08/19 02:05:48;;;;;;;18.23;8.52;;;;;;;;;;5006645;28;20026;-68
2021/08/19 02:08:15;;;;;;;16.83;9.60;;;;;;;;;;4995770;28;20030;-68
2021/08/19 02:10:41;;;;;;;14.40;9.50;;;;;;;;;;5013511;28;20025;-68
2021/08/19 02:13:07;;;;;;;17.05;9.65;;;;;;;;;;5012033;28;20030;-68
2021/08/19 02:15:33;;;;;;;14.40;9.10;;;;;;;;;;5013377;28;20133;-68
2021/08/19 02:17:59;;;;;;;15.73;8.75;;;;;;;;;;5020529;28;20026;-68
2021/08/19 02:20:26;;;;;;;15.38;9.32;;;;;;;;;;5022701;28;20033;-68
2021/08/19 02:22:52;;;;;;;13.85;8.93;;;;;;;;;;5014927;28;20025;-68
2021/08/19 02:25:18;;;;;;;18.75;9.80;;;;;;;;;;5001400;28;20489;-68
2021/08/19 02:27:44;;;;;;;12.52;8.68;;;;;;;;;;5006035;28;20029;-68
2021/08/19 02:30:11;;;;;;;13.50;9.13;;;;;;;;;;5010140;28;20018;-68
2021/08/19 02:32:37;;;;;;;13.55;8.75;;;;;;;;;;5009797;28;20441;-68
2021/08/19 02:35:03;;;;;;;15.23;8.48;;;;;;;;;;5009816;28;20044;-68
2021/08/19 02:37:29;;;;;;;14.00;7.80;;;;;;;;;;5009170;28;20049;-68
2021/08/19 02:39:55;;;;;;;19.27;9.50;;;;;;;;;;5011069;28;20026;-68
2021/08/19 02:42:21;;;;;;;14.82;8.18;;;;;;;;;;5003433;28;20383;-68
2021/08/19 02:44:47;;;;;;;11.80;7.47;;;;;;;;;;5015052;28;20040;-68
2021/08/19 02:47:13;;;;;;;17.80;7.65;;;;;;;;;;5011484;28;20036;-68
2021/08/19 02:49:39;;;;;;;11.88;8.20;;;;;;;;;;5024856;28;20057;-68
2021/08/19 02:52:05;;;;;;;15.13;9.00;;;;;;;;;;5013172;28;20040;-69
2021/08/19 02:54:31;;;;;;;12.18;8.52;;;;;;;;;;5015227;28;20570;-68
2021/08/19 02:56:57;;;;;;;14.27;8.93;;;;;;;;;;5037128;28;20029;-68
2021/08/19 02:59:23;;;;;;;12.75;8.15;;;;;;;;;;5015419;28;20509;-68
2021/08/19 03:01:49;;;;;;;13.63;9.05;;;;;;;;;;5023181;28;20038;-68
2021/08/19 03:04:15;;;;;;;14.82;8.77;;;;;;;;;;5002662;28;20038;-68
2021/08/19 03:06:41;;;;;;;15.32;9.10;;;;;;;;;;5009335;28;20032;-68
2021/08/19 03:09:07;;;;;;;15.00;8.25;;;;;;;;;;5029004;28;20021;-68
2021/08/19 03:11:33;;;;;;;14.45;8.00;;;;;;;;;;5023368;28;20055;-68
2021/08/19 03:13:59;;;;;;;15.35;8.20;;;;;;;;;;5025188;28;20040;-68
2021/08/19 03:16:25;;;;;;;13.80;8.25;;;;;;;;;;5038326;28;20021;-68
2021/08/19 03:18:51;;;;;;;14.02;7.95;;;;;;;;;;5024684;28;20040;-68
2021/08/19 03:21:20;;;;;;;12.60;7.95;;;;;;;;;;5004886;28;20045;-68
2021/08/19 03:23:46;;;;;;;18.70;9.25;;;;;;;;;;5021578;28;20105;-68
2021/08/19 03:26:12;;;;;;;17.08;8.18;;;;;;;;;;5012443;28;20403;-68
2021/08/19 03:28:40;;;;;;;10.88;7.30;;;;;;;;;;5021087;28;20028;-68
2021/08/19 03:31:06;;;;;;;11.55;7.78;;;;;;;;;;5015044;28;20041;-68
2021/08/19 03:33:32;;;;;;;13.00;7.53;;;;;;;;;;5010370;28;20108;-68
2021/08/19 03:35:58;;;;;;;12.90;8.48;;;;;;;;;;5015803;28;20029;-68
2021/08/19 03:38:26;;;;;;;12.85;7.85;;;;;;;;;;5015994;28;20028;-68
2021/08/19 03:40:52;;;;;;;10.75;7.40;;;;;;;;;;5001622;28;20018;-68
2021/08/19 03:43:20;;;;;;;13.25;7.05;;;;;;;;;;5020145;28;20040;-68
2021/08/19 03:45:47;;;;;;;11.45;7.35;;;;;;;;;;5010662;28;20025;-68
2021/08/19 03:48:13;;;;;;;12.63;7.18;;;;;;;;;;5022614;28;20018;-68
2021/08/19 03:50:40;;;;;;;10.73;7.13;;;;;;;;;;5014388;28;20380;-68
2021/08/19 03:53:05;;;;;;;14.93;7.22;;;;;;;;;;5012342;28;20112;-68
2021/08/19 03:55:32;;;;;;;9.48;6.93;;;;;;;;;;5010190;28;20113;-68
2021/08/19 03:57:57;;;;;;;12.57;7.13;;;;;;;;;;5009977;28;20084;-68
2021/08/19 04:00:24;;;;;;;10.77;7.40;;;;;;;;;;5013777;28;20029;-68
2021/08/19 04:02:49;;;;;;;11.02;7.80;;;;;;;;;;5010304;28;20021;-68
2021/08/19 04:05:16;;;;;;;13.90;7.43;;;;;;;;;;5001836;28;20232;-69
2021/08/19 04:07:42;;;;;;;9.68;6.70;;;;;;;;;;5009040;28;20021;-68
2021/08/19 04:10:08;;;;;;;11.25;7.85;;;;;;;;;;5008168;28;20025;-68
2021/08/19 04:12:35;;;;;;;12.50;7.20;;;;;;;;;;5015010;28;20022;-68
2021/08/19 04:15:02;;;;;;;8.77;6.47;;;;;;;;;;5017053;28;20544;-68
2021/08/19 04:17:28;;;;;;;12.82;6.78;;;;;;;;;;5029176;28;20071;-68
2021/08/19 04:19:54;;;;;;;13.50;6.88;;;;;;;;;;5015607;28;20116;-68
2021/08/19 04:22:20;;;;;;;9.20;6.10;;;;;;;;;;5019859;28;20455;-68
2021/08/19 04:24:46;;;;;;;10.05;6.53;;;;;;;;;;5020583;28;20104;-68
2021/08/19 04:27:12;;;;;;;10.63;6.53;;;;;;;;;;5010396;28;20027;-68
2021/08/19 04:29:38;;;;;;;10.60;7.32;;;;;;;;;;5026052;28;20501;-68
2021/08/19 04:32:04;;;;;;;12.05;7.15;;;;;;;;;;5015542;28;20352;-68
2021/08/19 04:34:30;;;;;;;10.90;7.07;;;;;;;;;;5011357;28;20030;-68
2021/08/19 04:36:56;;;;;;;11.15;7.25;;;;;;;;;;5008268;28;20026;-68
2021/08/19 04:39:22;;;;;;;11.68;6.57;;;;;;;;;;5008372;28;20033;-68
2021/08/19 04:41:50;;;;;;;14.32;8.27;;;;;;;;;;5017576;28;20025;-68
2021/08/19 04:44:16;;;;;;;12.65;7.43;;;;;;;;;;5005262;28;20034;-68
2021/08/19 04:46:42;;;;;;;12.35;8.13;;;;;;;;;;5008729;28;20033;-68
2021/08/19 04:49:07;;;;;;;11.95;7.30;;;;;;;;;;5010891;28;20514;-68
2021/08/19 04:51:34;;;;;;;11.90;7.30;;;;;;;;;;5002323;28;20109;-68
2021/08/19 04:54:01;;;;;;;11.30;6.38;;;;;;;;;;5014500;28;20469;-68
2021/08/19 04:56:29;;;;;;;10.73;6.63;;;;;;;;;;5000625;28;20085;-68
2021/08/19 04:58:56;;;;;;;9.95;6.75;;;;;;;;;;5019287;28;20053;-68
2021/08/19 05:01:22;;;;;;;12.32;7.38;;;;;;;;;;5004143;28;20198;-67
2021/08/19 05:03:48;;;;;;;9.43;7.07;;;;;;;;;;5020620;28;20471;-68
2021/08/19 05:06:14;;;;;;;9.70;6.78;;;;;;;;;;5009956;28;20101;-68
2021/08/19 05:08:40;;;;;;;12.32;6.93;;;;;;;;;;5007807;28;20026;-68
2021/08/19 05:11:05;;;;;;;11.32;6.95;;;;;;;;;;5014015;28;20018;-68
2021/08/19 05:13:31;;;;;;;10.07;6.68;;;;;;;;;;5002986;28;20029;-68
2021/08/19 05:15:58;;;;;;;10.93;6.95;;;;;;;;;;5007545;28;20060;-68
2021/08/19 05:18:25;;;;;;;8.32;6.30;;;;;;;;;;5007249;28;20035;-68
2021/08/19 05:20:51;;;;;;;10.70;6.18;;;;;;;;;;5005314;28;20548;-68
2021/08/19 05:23:17;;;;;;;10.95;5.47;;;;;;;;;;5006019;28;20112;-69
2021/08/19 05:25:43;;;;;;;9.02;5.68;;;;;;;;;;5012887;28;20102;-68
2021/08/19 05:28:09;;;;;;;9.52;5.55;;;;;;;;;;5013768;28;20027;-69
2021/08/19 05:30:35;;;;;;;9.77;6.15;;;;;;;;;;5020486;28;20030;-69
2021/08/19 05:33:01;;;;;;;10.30;5.85;;;;;;;;;;5005526;28;20030;-69
2021/08/19 05:35:27;;;;;;;7.75;5.82;;;;;;;;;;5011761;28;20057;-69
2021/08/19 05:37:53;;;;;;;7.65;5.20;;;;;;;;;;5002609;28;20289;-68
2021/08/19 05:40:19;;;;;;;10.32;6.82;;;;;;;;;;5020548;28;20025;-68
2021/08/19 05:42:45;;;;;;;11.60;6.53;;;;;;;;;;5003433;28;20862;-69
2021/08/19 05:45:11;;;;;;;9.45;6.93;;;;;;;;;;5008025;28;20478;-68
2021/08/19 05:47:37;;;;;;;8.35;5.65;;;;;;;;;;5004750;28;20569;-68
2021/08/19 05:50:09;;;;;;;12.68;6.60;;;;;;;;;;5005623;28;20097;-68
2021/08/19 05:52:35;;;;;;;11.95;7.28;;;;;;;;;;5005879;28;20009;-69
2021/08/19 05:55:01;;;;;;;13.98;7.07;;;;;;;;;;5009356;28;20036;-69
2021/08/19 05:57:27;;;;;;;10.52;6.65;;;;;;;;;;5014196;28;20033;-69
2021/08/19 05:59:53;;;;;;;15.90;7.95;;;;;;;;;;5013251;28;20030;-68
2021/08/19 06:02:19;;;;;;;17.60;9.00;;;;;;;;;;5014500;28;20108;-69
2021/08/19 06:04:45;;;;;;;13.85;7.93;;;;;;;;;;5002704;28;20432;-68
2021/08/19 06:07:11;;;;;;;12.95;8.60;;;;;;;;;;5010961;28;20089;-69
2021/08/19 06:09:37;;;;;;;13.65;8.75;;;;;;;;;;5021630;28;20096;-69
2021/08/19 06:12:03;;;;;;;15.07;8.93;;;;;;;;;;5016846;28;20494;-68
2021/08/19 06:14:29;;;;;;;16.50;8.88;;;;;;;;;;5004680;28;20033;-68
2021/08/19 06:16:55;;;;;;;16.45;9.98;;;;;;;;;;5015803;28;20462;-69
2021/08/19 06:19:21;;;;;;;16.20;9.27;;;;;;;;;;5018227;28;20022;-69
2021/08/19 06:21:47;;;;;;;12.40;10.05;;;;;;;;;;5010392;28;20025;-69
2021/08/19 06:24:14;;;;;;;13.55;9.55;;;;;;;;;;5013488;28;20030;-69
2021/08/19 06:26:40;;;;;;;15.65;9.82;;;;;;;;;;5022314;28;20030;-69
2021/08/19 06:29:05;;;;;;;16.05;10.48;;;;;;;;;;5021368;28;20109;-68
2021/08/19 06:31:31;;;;;;;18.17;10.50;;;;;;;;;;5014185;28;20368;-69
2021/08/19 06:33:57;;;;;;;15.00;9.55;;;;;;;;;;5013046;28;20487;-69
2021/08/19 06:36:23;;;;;;;15.95;9.68;;;;;;;;;;5010608;28;20471;-69
2021/08/19 06:38:53;;;;;;;13.15;9.65;;;;;;;;;;5005932;28;20026;-69
2021/08/19 06:41:24;;;;;;;14.57;8.93;;;;;;;;;;5009068;28;20028;-68
2021/08/19 06:43:50;;;;;;;15.00;9.10;;;;;;;;;;5006555;28;20040;-68
2021/08/19 06:46:16;;;;;;;17.55;9.35;;;;;;;;;;5009496;28;20033;-69
2021/08/19 06:48:42;;;;;;;14.15;9.18;;;;;;;;;;5017175;28;20033;-69
2021/08/19 06:51:08;;;;;;;15.02;10.15;;;;;;;;;;5019451;28;20021;-69
2021/08/19 06:53:35;;;;;;;16.77;10.00;;;;;;;;;;5010625;28;20033;-69
2021/08/19 06:56:01;;;;;;;18.63;10.98;;;;;;;;;;5013059;28;20032;-68
2021/08/19 06:58:27;;;;;;;16.17;10.98;;;;;;;;;;5009504;28;20491;-68
2021/08/19 07:00:53;;;;;;;16.05;10.27;;;;;;;;;;5007222;28;20088;-68
2021/08/19 07:03:19;;;;;;;18.50;10.48;;;;;;;;;;5001349;28;20073;-69
2021/08/19 07:05:45;;;;;;;15.75;10.25;;;;;;;;;;5008179;28;20049;-69
2021/08/19 07:08:11;;;;;;;16.63;10.45;;;;;;;;;;5000150;28;20034;-69
2021/08/19 07:10:38;;;;;;;17.30;10.00;;;;;;;;;;4994740;28;20401;-69
2021/08/19 07:13:04;;;;;;;21.13;11.55;;;;;;;;;;4993589;28;20064;-69
2021/08/19 07:15:30;;;;;;;15.25;9.40;;;;;;;;;;4994942;28;20046;-68
2021/08/19 07:17:56;;;;;;;15.90;10.75;;;;;;;;;;4996297;28;20383;-69
2021/08/19 07:20:22;;;;;;;23.50;11.10;;;;;;;;;;4992158;28;20038;-69
2021/08/19 07:22:49;;;;;;;18.85;10.38;;;;;;;;;;4992588;28;20490;-68
2021/08/19 07:25:16;;;;;;;18.52;10.00;;;;;;;;;;4996920;28;20073;-69
2021/08/19 07:27:43;;;;;;;21.80;10.43;;;;;;;;;;4995645;28;20018;-68
2021/08/19 07:30:10;;;;;;;20.85;10.18;;;;;;;;;;5003013;28;20476;-69
2021/08/19 07:32:36;;;;;;;20.45;11.00;;;;;;;;;;4997440;28;20149;-69
2021/08/19 07:35:02;;;;;;;20.52;10.68;;;;;;;;;;4995029;28;20032;-69
2021/08/19 07:37:28;;;;;;;21.75;10.43;;;;;;;;;;4997201;28;20112;-69
2021/08/19 07:39:54;;;;;;;19.92;10.43;;;;;;;;;;4997501;28;20494;-69
2021/08/19 07:42:20;;;;;;;19.85;10.70;;;;;;;;;;5009504;28;20486;-70
2021/08/19 07:44:46;;;;;;;18.83;10.63;;;;;;;;;;5006289;28;20427;-69
2021/08/19 07:47:12;;;;;;;20.20;11.02;;;;;;;;;;5014010;28;20036;-69
2021/08/19 07:49:38;;;;;;;20.45;11.00;;;;;;;;;;5009192;28;20550;-69
2021/08/19 07:52:04;;;;;;;16.27;10.63;;;;;;;;;;5023254;28;20081;-69
2021/08/19 07:54:30;;;;;;;16.50;9.88;;;;;;;;;;4983733;28;20070;-68
2021/08/19 07:56:56;;;;;;;20.10;10.15;;;;;;;;;;4956677;28;20046;-69
2021/08/19 07:59:22;;;;;;;15.88;10.32;;;;;;;;;;4958923;28;20035;-69
2021/08/19 08:01:48;;;;;;;20.50;10.05;;;;;;;;;;4965898;28;20031;-69
2021/08/19 08:04:14;;;;;;;16.75;10.02;;;;;;;;;;4964100;28;20501;-69
2021/08/19 08:06:40;;;;;;;17.67;9.63;;;;;;;;;;4962714;28;20026;-69
2021/08/19 08:09:06;;;;;;;13.50;8.77;;;;;;;;;;4963428;28;20102;-69
2021/08/19 08:11:32;;;;;;;17.23;10.73;;;;;;;;;;4963138;28;20555;-69
2021/08/19 08:13:59;;;;;;;14.82;9.43;;;;;;;;;;4980009;28;20095;-69
2021/08/19 08:16:25;;;;;;;15.85;9.88;;;;;;;;;;4966413;28;20055;-69
2021/08/19 08:18:51;;;;;;;16.40;10.05;;;;;;;;;;4953406;28;20363;-68
2021/08/19 08:21:17;;;;;;;18.13;10.05;;;;;;;;;;4953864;28;20034;-69
2021/08/19 08:23:43;;;;;;;15.07;9.82;;;;;;;;;;4956034;28;20030;-70
2021/08/19 08:26:10;;;;;;;20.23;10.75;;;;;;;;;;4954961;28;20030;-70
2021/08/19 08:28:36;;;;;;;20.17;10.77;;;;;;;;;;4963461;28;20033;-70
2021/08/19 08:31:03;;;;;;;17.33;9.68;;;;;;;;;;4955799;28;21667;-70
2021/08/19 08:33:31;;;;;;;16.63;10.23;;;;;;;;;;4960013;28;20030;-70
2021/08/19 08:35:58;;;;;;;17.55;9.93;;;;;;;;;;4953604;28;20110;-70
2021/08/19 08:38:25;;;;;;;21.67;10.55;;;;;;;;;;4956982;28;20140;-70
2021/08/19 08:40:52;;;;;;;14.27;9.95;;;;;;;;;;4958726;28;20532;-70
2021/08/19 08:43:20;;;;;;;18.40;9.63;;;;;;;;;;4956913;28;20400;-70
2021/08/19 08:45:47;;;;;;;19.42;9.90;;;;;;;;;;4953467;28;20425;-70
2021/08/19 08:48:14;;;;;;;19.30;10.00;;;;;;;;;;4955035;28;20118;-70
2021/08/19 08:50:41;;;;;;;19.80;10.60;;;;;;;;;;4953656;28;20042;-70
2021/08/19 08:53:08;;;;;;;18.13;10.20;;;;;;;;;;4954676;28;20063;-70
2021/08/19 08:55:34;;;;;;;18.50;9.93;;;;;;;;;;4959807;28;20444;-71
2021/08/19 08:58:00;;;;;;;19.83;10.70;;;;;;;;;;4953089;28;20523;-70
2021/08/19 09:00:26;;;;;;;17.45;10.88;;;;;;;;;;4955670;28;20396;-69
2021/08/19 09:02:52;;;;;;;17.77;10.55;;;;;;;;;;4953366;28;20057;-70
2021/08/19 09:05:18;;;;;;;14.13;10.38;;;;;;;;;;4959908;28;20023;-70
2021/08/19 09:07:45;;;;;;;19.75;10.48;;;;;;;;;;4954220;28;20046;-71
2021/08/19 09:10:13;;;;;;;18.90;9.43;;;;;;;;;;4957457;28;20193;-70
2021/08/19 09:12:42;;;;;;;17.15;9.57;;;;;;;;;;4953969;28;20584;-70
2021/08/19 09:15:09;;;;;;;14.60;9.05;;;;;;;;;;4953930;28;20031;-71
2021/08/19 09:17:49;;;;;;;17.35;8.88;;;;;;;;;;4953175;28;20398;-70
2021/08/19 09:20:15;;;;;;;;;;;;;;;;;;4959534;28;20051;-70
2021/08/19 09:22:58;;;;;;;14.57;8.93;;;;;;;;;;4966992;28;19910;-71
2021/08/19 09:25:24;;;;;;;16.95;10.35;;;;;;;;;;4955503;28;20023;-71
2021/08/19 09:28:16;;;;;;;19.30;10.05;;;;;;;;;;4950420;28;20043;-70
2021/08/19 09:30:47;;;;;;;17.38;9.85;;;;;;;;;;4933896;28;20455;-74
2021/08/19 09:33:14;;;;;;;18.70;9.75;;;;;;;;;;4953340;28;20118;-71
2021/08/19 09:35:40;;;;;;;14.10;8.93;;;;;;;;;;4950687;28;20150;-70
2021/08/19 09:38:08;;;;;;;17.83;9.63;;;;;;;;;;4950003;28;20085;-70
2021/08/19 09:40:35;;;;;;;18.17;8.65;;;;;;;;;;4951030;28;20031;-70
2021/08/19 09:43:01;;;;;;;13.65;8.27;;;;;;;;;;4951674;28;20945;-70
2021/08/19 09:45:27;;;;;;;18.83;9.30;;;;;;;;;;4950016;28;20031;-72
2021/08/19 09:47:56;;;;;;;16.52;8.98;;;;;;;;;;4965556;28;20081;-72
2021/08/19 09:50:23;;;;;;;18.60;9.20;;;;;;;;;;4951519;28;20081;-69
2021/08/19 09:52:50;;;;;;;14.05;7.38;;;;;;;;;;4951594;28;20031;-70
2021/08/19 09:55:22;;;;;;;12.18;8.13;;;;;;;;;;4954386;28;20062;-69
2021/08/19 09:57:48;;;;;;;12.27;7.82;;;;;;;;;;4952168;28;20123;-68
2021/08/19 10:00:31;;;;;;;15.23;8.27;;;;;;;;;;4954635;28;20130;-70
2021/08/19 10:02:58;;;;;;;13.40;7.45;;;;;;;;;;4953803;28;20054;-69
2021/08/19 10:05:24;;;;;;;13.48;8.07;;;;;;;;;;4958971;28;20027;-70
2021/08/19 10:07:51;;;;;;;17.30;8.07;;;;;;;;;;4971140;28;20027;-70
2021/08/19 10:10:17;;;;;;;13.93;8.20;;;;;;;;;;4960562;28;20035;-69
2021/08/19 10:12:45;;;;;;;14.95;8.73;;;;;;;;;;4956160;28;20441;-70
2021/08/19 10:15:12;;;;;;;11.70;7.82;;;;;;;;;;4957738;28;20062;-70
2021/08/19 10:17:40;;;;;;;14.35;8.13;;;;;;;;;;4959584;28;20110;-70
2021/08/19 10:20:07;;;;;;;13.88;8.10;;;;;;;;;;4959404;28;20509;-70
2021/08/19 10:22:34;;;;;;;16.67;8.30;;;;;;;;;;4956290;28;20031;-69
2021/08/19 10:25:01;;;;;;;14.07;7.40;;;;;;;;;;4956687;28;20023;-69
2021/08/19 10:27:28;;;;;;;11.68;7.93;;;;;;;;;;4956094;28;20034;-69
2021/08/19 10:29:59;;;;;;;14.55;7.95;;;;;;;;;;4956572;28;20436;-69
2021/08/19 10:32:25;;;;;;;11.63;7.47;;;;;;;;;;4954871;28;20027;-69
2021/08/19 10:34:54;;;;;;;11.20;7.05;;;;;;;;;;4955228;28;20505;-70
2021/08/19 10:37:20;;;;;;;12.07;6.87;;;;;;;;;;4966161;28;20031;-69
2021/08/19 10:39:46;;;;;;;13.68;7.25;;;;;;;;;;4965542;28;20360;-69
2021/08/19 10:42:27;;;;;;;11.52;7.75;;;;;;;;;;4960444;28;20068;-69
2021/08/19 10:44:53;;;;;;;8.93;6.28;;;;;;;;;;4961407;28;20362;-69
2021/08/19 10:47:45;;;;;;;14.25;7.40;;;;;;;;;;4970384;28;20085;-69
2021/08/19 10:50:30;;;;;;;16.23;6.72;;;;;;;;;;4960453;28;20050;-69
2021/08/19 10:53:00;;;;;;;11.80;6.78;;;;;;;;;;4960492;28;20027;-69
2021/08/19 10:55:38;;;;;;;13.13;6.05;;;;;;;;;;4961481;28;20057;-69
2021/08/19 10:58:21;;;;;;;10.07;6.00;;;;;;;;;;4963600;28;20031;-69
2021/08/19 11:00:47;;;;;;;9.23;6.28;;;;;;;;;;4959499;28;20015;-69
2021/08/19 11:03:31;;;;;;;9.60;5.97;;;;;;;;;;4959832;28;20035;-69
2021/08/19 11:05:57;;;;;;;10.77;6.55;;;;;;;;;;4957504;28;20026;-68
2021/08/19 11:08:51;;;;;;;10.60;6.25;;;;;;;;;;4960585;28;20042;-70
2021/08/19 11:11:33;;;;;;;10.48;6.50;;;;;;;;;;4961654;28;20043;-70
2021/08/19 11:14:09;;;;;;;11.25;5.85;;;;;;;;;;4958216;28;20495;-70
2021/08/19 11:16:39;;;;;;;9.38;4.93;;;;;;;;;;4957353;28;20034;-70
2021/08/19 11:19:14;;;;;;;8.30;5.15;;;;;;;;;;4960648;28;20057;-70
2021/08/19 11:21:41;;;;;;;10.13;5.63;;;;;;;;;;4961262;28;20110;-70
2021/08/19 11:24:08;;;;;;;7.93;5.18;;;;;;;;;;4962331;28;20463;-70
2021/08/19 11:26:34;;;;;;;7.18;4.30;;;;;;;;;;4960338;28;20077;-70
2021/08/19 11:29:00;;;;;;;8.65;4.35;;;;;;;;;;4966092;28;20022;-70
2021/08/19 11:31:26;;;;;;;8.82;4.38;;;;;;;;;;4958220;28;20020;-70
2021/08/19 11:34:03;;;;;;;10.60;5.20;;;;;;;;;;4959168;28;20034;-70
2021/08/19 11:36:29;;;;;;;8.05;4.47;;;;;;;;;;4956448;28;20035;-70
2021/08/19 11:39:06;;;;;;;7.22;4.72;;;;;;;;;;4955766;28;20033;-70
2021/08/19 11:41:32;;;;;;;8.45;5.47;;;;;;;;;;4952261;28;20035;-69
2021/08/19 11:43:59;;;;;;;9.65;5.70;;;;;;;;;;4953646;28;20252;-69
2021/08/19 11:46:27;;;;;;;10.27;6.65;;;;;;;;;;4954578;28;20023;-69
2021/08/19 11:48:53;;;;;;;7.57;4.95;;;;;;;;;;4955384;28;20549;-70
2021/08/19 11:51:20;;;;;;;6.60;4.82;;;;;;;;;;4959815;28;20027;-68
2021/08/19 11:54:00;;;;;;;11.45;5.47;;;;;;;;;;4952286;28;20173;-70
2021/08/19 11:56:27;;;;;;;8.73;5.13;;;;;;;;;;4957671;28;20093;-69
2021/08/19 11:59:00;;;;;;;16.55;6.80;;;;;;;;;;4962872;28;20035;-67
2021/08/19 12:01:26;;;;;;;8.35;5.50;;;;;;;;;;4957207;28;20626;-69
2021/08/19 12:03:52;;;;;;;12.05;6.68;;;;;;;;;;4971489;28;20021;-68
2021/08/19 12:06:19;;;;;;;10.98;6.60;;;;;;;;;;4963890;28;20030;-69
2021/08/19 12:08:52;;;;;;;11.18;7.75;;;;;;;;;;4961583;28;20039;-69
2021/08/19 12:11:19;;;;;;;8.63;6.78;;;;;;;;;;4971820;28;20640;-68
2021/08/19 12:13:46;;;;;;;9.68;7.38;;;;;;;;;;4972357;28;20026;-69
2021/08/19 12:16:12;;;;;;;12.68;8.00;;;;;;;;;;4967593;28;20130;-68
2021/08/19 12:18:38;;;;;;;9.48;7.68;;;;;;;;;;4978985;28;20517;-69
2021/08/19 12:21:15;;;;;;;9.50;6.22;;;;;;;;;;4973012;28;20037;-69
2021/08/19 12:23:41;;;;;;;8.73;4.88;;;;;;;;;;4978893;28;20082;-69
2021/08/19 12:26:08;;;;;;;6.07;4.05;;;;;;;;;;4966855;28;20026;-68
2021/08/19 12:28:34;;;;;;;7.88;5.03;;;;;;;;;;4962211;28;20022;-70
2021/08/19 12:31:02;;;;;;;11.90;7.60;;;;;;;;;;4958030;28;20059;-69
2021/08/19 12:33:33;;;;;;;11.52;6.82;;;;;;;;;;4961476;28;20041;-69
2021/08/19 12:36:08;;;;;;;9.38;6.82;;;;;;;;;;4956270;28;20539;-70
2021/08/19 12:38:34;;;;;;;9.15;6.78;;;;;;;;;;4964075;28;20435;-69
2021/08/19 12:41:20;;;;;;;6.88;5.22;;;;;;;;;;4962302;28;20026;-69
2021/08/19 12:43:47;;;;;;;8.30;6.65;;;;;;;;;;4966042;28;20473;-70
2021/08/19 12:46:14;;;;;;;7.63;5.70;;;;;;;;;;4963963;28;20137;-70
2021/08/19 12:48:41;;;;;;;9.20;6.15;;;;;;;;;;4978411;28;20026;-69
2021/08/19 12:51:17;;;;;;;7.88;6.03;;;;;;;;;;4972923;28;20034;-70
2021/08/19 12:54:05;;;;;;;7.53;5.53;;;;;;;;;;4970756;28;20031;-69
2021/08/19 12:56:31;;;;;;;9.45;5.45;;;;;;;;;;4963222;28;20027;-70
2021/08/19 12:58:58;;;;;;;7.53;5.22;;;;;;;;;;4968679;28;20488;-73
2021/08/19 13:01:24;;;;;;;7.15;4.70;;;;;;;;;;4989146;28;20034;-69
2021/08/19 13:03:50;;;;;;;8.02;5.53;;;;;;;;;;4977697;28;20487;-74
2021/08/19 13:06:16;;;;;;;9.52;5.50;;;;;;;;;;4960506;28;20031;-72
2021/08/19 13:08:42;;;;;;;5.68;4.05;;;;;;;;;;4994466;28;20027;-69
2021/08/19 13:11:08;;;;;;;6.97;5.25;;;;;;;;;;4984949;28;20029;-69
2021/08/19 13:13:34;;;;;;;10.27;7.00;;;;;;;;;;4981650;28;20050;-69
2021/08/19 13:16:00;;;;;;;10.35;6.78;;;;;;;;;;4961853;28;20527;-69
2021/08/19 13:18:26;;;;;;;7.78;5.93;;;;;;;;;;4962954;28;20041;-70
2021/08/19 13:20:52;;;;;;;11.05;6.88;;;;;;;;;;4958899;28;20031;-69
2021/08/19 13:23:18;;;;;;;10.05;6.55;;;;;;;;;;4964055;28;20062;-70
2021/08/19 13:25:44;;;;;;;8.55;5.90;;;;;;;;;;4963824;28;20047;-70
2021/08/19 13:28:11;;;;;;;7.18;5.35;;;;;;;;;;4967052;28;20035;-70
2021/08/19 13:30:37;;;;;;;8.88;5.47;;;;;;;;;;4963462;28;20027;-69
2021/08/19 13:33:03;;;;;;;10.25;6.78;;;;;;;;;;4968028;28;20023;-70
2021/08/19 13:35:31;;;;;;;10.27;7.47;;;;;;;;;;4969231;28;20034;-70
2021/08/19 13:37:57;;;;;;;11.52;7.00;;;;;;;;;;4972841;28;20031;-70
2021/08/19 13:40:24;;;;;;;14.65;9.43;;;;;;;;;;4970992;28;20600;-70
2021/08/19 13:42:50;;;;;;;15.10;9.10;;;;;;;;;;4969532;28;20400;-70
2021/08/19 13:45:15;;;;;;;14.23;8.85;;;;;;;;;;4990661;28;20034;-70
2021/08/19 13:47:41;;;;;;;23.10;11.10;;;;;;;;;;4978691;28;20469;-70
2021/08/19 13:50:08;;;;;;;16.85;10.75;;;;;;;;;;4974901;28;20023;-70
2021/08/19 13:52:33;;;;;;;17.33;10.15;;;;;;;;;;4978082;28;20138;-69
2021/08/19 13:54:59;;;;;;;19.17;9.60;;;;;;;;;;4963174;28;20174;-69
2021/08/19 13:57:26;;;;;;;14.75;9.88;;;;;;;;;;4977083;28;20030;-70
2021/08/19 13:59:52;;;;;;;20.65;10.02;;;;;;;;;;4971819;28;20492;-70
2021/08/19 14:02:17;;;;;;;17.23;10.02;;;;;;;;;;4989679;28;20185;-70
2021/08/19 14:04:43;;;;;;;19.48;10.38;;;;;;;;;;4972677;28;20030;-70
2021/08/19 14:07:09;;;;;;;14.98;10.23;;;;;;;;;;4986270;28;20102;-69
2021/08/19 14:09:35;;;;;;;15.73;9.85;;;;;;;;;;4973349;28;20034;-70
2021/08/19 14:12:01;;;;;;;15.40;8.75;;;;;;;;;;4967660;28;20018;-70
2021/08/19 14:14:27;;;;;;;14.23;8.48;;;;;;;;;;4970285;28;20037;-72
2021/08/19 14:16:53;;;;;;;13.20;9.23;;;;;;;;;;4969418;28;20074;-70
2021/08/19 14:19:19;;;;;;;18.38;9.73;;;;;;;;;;4965922;28;20647;-70
2021/08/19 14:21:47;;;;;;;13.60;9.85;;;;;;;;;;4975913;28;20111;-70
2021/08/19 14:24:13;;;;;;;18.25;10.15;;;;;;;;;;4983949;28;20081;-70
2021/08/19 14:26:40;;;;;;;12.88;8.73;;;;;;;;;;4979217;28;20022;-69
2021/08/19 14:29:06;;;;;;;18.08;10.27;;;;;;;;;;4972777;28;20552;-71
2021/08/19 14:31:32;;;;;;;20.73;10.15;;;;;;;;;;4966342;28;20035;-73